sensor_id;sensor_type;location;lat;lon;timestamp;P1;durP1;ratioP1;P2;durP2;ratioP2
51374;SDS011;37465;52.738;4.752;2022-09-29T07:23:45;12.18;;;10.63;;
51374;SDS011;37465;52.738;4.752;2022-09-29T14:56:06;0.30;;;0.00;;
51374;SDS011;37465;52.738;4.752;2022-09-29T14:58:41;1.00;;;0.13;;
51374;SDS011;37465;52.738;4.752;2022-09-29T15:01:24;2.72;;;0.93;;
51374;SDS011;37465;52.738;4.752;2022-09-29T15:03:53;0.93;;;0.13;;
51374;SDS011;37465;52.738;4.752;2022-09-29T15:06:24;0.40;;;0.10;;
51374;SDS011;37465;52.738;4.752;2022-09-29T15:08:53;0.85;;;0.22;;
51374;SDS011;37465;52.738;4.752;2022-09-29T15:11:27;1.05;;;0.15;;
51374;SDS011;37465;52.738;4.752;2022-09-29T15:13:55;0.28;;;0.08;;
51374;SDS011;37465;52.738;4.752;2022-09-29T15:16:25;0.52;;;0.10;;
51374;SDS011;37465;52.738;4.752;2022-09-29T15:18:58;0.30;;;0.10;;
51374;SDS011;37465;52.738;4.752;2022-09-29T15:21:31;1.55;;;0.10;;
51374;SDS011;37465;52.738;4.752;2022-09-29T15:24:10;0.20;;;0.08;;
51374;SDS011;37465;52.738;4.752;2022-09-29T15:26:42;0.63;;;0.10;;
51374;SDS011;37465;52.738;4.752;2022-09-29T15:29:09;0.85;;;0.20;;
51374;SDS011;37465;52.738;4.752;2022-09-29T15:31:43;0.20;;;0.20;;
51374;SDS011;37465;52.738;4.752;2022-09-29T15:34:11;0.80;;;0.20;;
51374;SDS011;37465;52.738;4.752;2022-09-29T15:36:41;0.60;;;0.10;;
51374;SDS011;37465;52.738;4.752;2022-09-29T15:39:12;1.63;;;0.10;;
51374;SDS011;37465;52.738;4.752;2022-09-29T15:41:52;0.80;;;0.10;;
51374;SDS011;37465;52.738;4.752;2022-09-29T15:44:26;0.10;;;0.10;;
51374;SDS011;37465;52.738;4.752;2022-09-29T15:46:55;0.60;;;0.27;;
51374;SDS011;37465;52.738;4.752;2022-09-29T15:49:23;0.30;;;0.17;;
51374;SDS011;37465;52.738;4.752;2022-09-29T15:51:54;0.30;;;0.30;;
51374;SDS011;37465;52.738;4.752;2022-09-29T15:54:23;1.33;;;0.35;;
51374;SDS011;37465;52.738;4.752;2022-09-29T15:56:52;0.85;;;0.40;;
51374;SDS011;37465;52.738;4.752;2022-09-29T15:59:39;0.60;;;0.20;;
51374;SDS011;37465;52.738;4.752;2022-09-29T16:02:12;0.38;;;0.20;;
51374;SDS011;37465;52.738;4.752;2022-09-29T16:04:41;1.17;;;0.22;;
51374;SDS011;37465;52.738;4.752;2022-09-29T16:07:15;0.30;;;0.25;;
51374;SDS011;37465;52.738;4.752;2022-09-29T16:09:44;1.33;;;0.13;;
51374;SDS011;37465;52.738;4.752;2022-09-29T16:12:13;0.55;;;0.30;;
51374;SDS011;37465;52.738;4.752;2022-09-29T16:14:43;0.75;;;0.20;;
51374;SDS011;37465;52.738;4.752;2022-09-29T16:17:15;0.60;;;0.10;;
51374;SDS011;37465;52.738;4.752;2022-09-29T16:19:43;1.35;;;1.00;;
51374;SDS011;37465;52.738;4.752;2022-09-29T16:22:15;1.02;;;0.70;;
51374;SDS011;37465;52.738;4.752;2022-09-29T16:24:50;0.93;;;0.50;;
51374;SDS011;37465;52.738;4.752;2022-09-29T16:30:14;0.30;;;0.20;;
51374;SDS011;37465;52.738;4.752;2022-09-29T16:32:43;0.63;;;0.20;;
51374;SDS011;37465;52.738;4.752;2022-09-29T16:38:08;0.57;;;0.20;;
51374;SDS011;37465;52.738;4.752;2022-09-29T16:40:37;0.95;;;0.25;;
51374;SDS011;37465;52.738;4.752;2022-09-29T16:43:05;0.20;;;0.10;;
51374;SDS011;37465;52.738;4.752;2022-09-29T16:45:33;1.90;;;0.20;;
51374;SDS011;37465;52.738;4.752;2022-09-29T16:48:01;0.40;;;0.20;;
51374;SDS011;37465;52.738;4.752;2022-09-29T16:50:28;0.10;;;0.10;;
51374;SDS011;37465;52.738;4.752;2022-09-29T16:52:56;0.40;;;0.10;;
51374;SDS011;37465;52.738;4.752;2022-09-29T16:55:25;1.17;;;0.20;;
51374;SDS011;37465;52.738;4.752;2022-09-29T16:58:03;0.15;;;0.13;;
51374;SDS011;37465;52.738;4.752;2022-09-29T17:00:31;0.50;;;0.20;;
51374;SDS011;37465;52.738;4.752;2022-09-29T17:03:00;0.55;;;0.10;;
51374;SDS011;37465;52.738;4.752;2022-09-29T17:05:33;1.30;;;0.50;;
51374;SDS011;37465;52.738;4.752;2022-09-29T17:08:03;0.20;;;0.20;;
51374;SDS011;37465;52.738;4.752;2022-09-29T17:10:36;1.08;;;0.25;;
51374;SDS011;37465;52.738;4.752;2022-09-29T17:13:04;0.25;;;0.20;;
51374;SDS011;37465;52.738;4.752;2022-09-29T17:15:35;0.60;;;0.13;;
51374;SDS011;37465;52.738;4.752;2022-09-29T17:18:04;0.73;;;0.20;;
51374;SDS011;37465;52.738;4.752;2022-09-29T17:20:31;0.47;;;0.47;;
51374;SDS011;37465;52.738;4.752;2022-09-29T17:22:59;0.30;;;0.30;;
51374;SDS011;37465;52.738;4.752;2022-09-29T17:25:26;0.28;;;0.25;;
51374;SDS011;37465;52.738;4.752;2022-09-29T17:27:54;0.20;;;0.20;;
51374;SDS011;37465;52.738;4.752;2022-09-29T17:30:39;1.13;;;0.32;;
51374;SDS011;37465;52.738;4.752;2022-09-29T17:33:09;0.80;;;0.20;;
51374;SDS011;37465;52.738;4.752;2022-09-29T17:35:37;0.40;;;0.20;;
51374;SDS011;37465;52.738;4.752;2022-09-29T17:38:05;0.30;;;0.30;;
51374;SDS011;37465;52.738;4.752;2022-09-29T17:40:35;0.75;;;0.47;;
51374;SDS011;37465;52.738;4.752;2022-09-29T17:43:04;0.32;;;0.32;;
51374;SDS011;37465;52.738;4.752;2022-09-29T17:45:31;0.50;;;0.43;;
51374;SDS011;37465;52.738;4.752;2022-09-29T17:48:00;1.30;;;0.50;;
51374;SDS011;37465;52.738;4.752;2022-09-29T17:50:30;1.17;;;1.02;;
51374;SDS011;37465;52.738;4.752;2022-09-29T17:53:02;1.60;;;1.13;;
51374;SDS011;37465;52.738;4.752;2022-09-29T17:55:30;1.17;;;1.07;;
51374;SDS011;37465;52.738;4.752;2022-09-29T17:57:58;1.08;;;0.98;;
51374;SDS011;37465;52.738;4.752;2022-09-29T18:00:27;0.80;;;0.70;;
51374;SDS011;37465;52.738;4.752;2022-09-29T18:02:54;0.95;;;0.82;;
51374;SDS011;37465;52.738;4.752;2022-09-29T18:05:23;2.05;;;1.20;;
51374;SDS011;37465;52.738;4.752;2022-09-29T18:07:52;1.73;;;1.45;;
51374;SDS011;37465;52.738;4.752;2022-09-29T18:10:21;1.73;;;1.60;;
51374;SDS011;37465;52.738;4.752;2022-09-29T18:12:50;3.03;;;1.88;;
51374;SDS011;37465;52.738;4.752;2022-09-29T18:15:18;6.10;;;2.67;;
51374;SDS011;37465;52.738;4.752;2022-09-29T18:17:45;2.15;;;1.60;;
51374;SDS011;37465;52.738;4.752;2022-09-29T18:20:14;2.42;;;1.15;;
51374;SDS011;37465;52.738;4.752;2022-09-29T18:22:42;1.17;;;1.08;;
51374;SDS011;37465;52.738;4.752;2022-09-29T18:25:12;2.38;;;1.00;;
51374;SDS011;37465;52.738;4.752;2022-09-29T18:27:40;2.35;;;2.03;;
51374;SDS011;37465;52.738;4.752;2022-09-29T18:30:12;1.73;;;0.93;;
51374;SDS011;37465;52.738;4.752;2022-09-29T18:32:44;1.35;;;0.65;;
51374;SDS011;37465;52.738;4.752;2022-09-29T18:35:11;2.10;;;0.80;;
51374;SDS011;37465;52.738;4.752;2022-09-29T18:37:40;1.63;;;0.75;;
51374;SDS011;37465;52.738;4.752;2022-09-29T18:40:07;0.60;;;0.60;;
51374;SDS011;37465;52.738;4.752;2022-09-29T18:42:39;1.65;;;0.38;;
51374;SDS011;37465;52.738;4.752;2022-09-29T18:45:10;0.63;;;0.47;;
51374;SDS011;37465;52.738;4.752;2022-09-29T18:47:39;0.57;;;0.35;;
51374;SDS011;37465;52.738;4.752;2022-09-29T18:50:10;1.00;;;0.80;;
51374;SDS011;37465;52.738;4.752;2022-09-29T18:52:39;1.67;;;0.50;;
51374;SDS011;37465;52.738;4.752;2022-09-29T18:55:06;1.85;;;0.40;;
51374;SDS011;37465;52.738;4.752;2022-09-29T18:57:34;0.52;;;0.30;;
51374;SDS011;37465;52.738;4.752;2022-09-29T19:00:03;0.70;;;0.40;;
51374;SDS011;37465;52.738;4.752;2022-09-29T19:02:34;0.95;;;0.45;;
51374;SDS011;37465;52.738;4.752;2022-09-29T19:05:02;0.70;;;0.70;;
51374;SDS011;37465;52.738;4.752;2022-09-29T19:07:31;2.72;;;2.35;;
51374;SDS011;37465;52.738;4.752;2022-09-29T19:09:58;1.77;;;1.30;;
51374;SDS011;37465;52.738;4.752;2022-09-29T19:12:26;1.33;;;1.13;;
51374;SDS011;37465;52.738;4.752;2022-09-29T19:14:54;0.80;;;0.77;;
51374;SDS011;37465;52.738;4.752;2022-09-29T19:17:27;1.02;;;0.68;;
51374;SDS011;37465;52.738;4.752;2022-09-29T19:19:55;1.00;;;0.88;;
51374;SDS011;37465;52.738;4.752;2022-09-29T19:22:23;0.70;;;0.70;;
51374;SDS011;37465;52.738;4.752;2022-09-29T19:24:54;2.15;;;1.10;;
51374;SDS011;37465;52.738;4.752;2022-09-29T19:27:21;1.60;;;1.00;;
51374;SDS011;37465;52.738;4.752;2022-09-29T19:29:51;0.88;;;0.88;;
51374;SDS011;37465;52.738;4.752;2022-09-29T19:34:47;1.13;;;1.02;;
51374;SDS011;37465;52.738;4.752;2022-09-29T19:37:15;0.67;;;0.63;;
51374;SDS011;37465;52.738;4.752;2022-09-29T19:39:42;0.60;;;0.60;;
51374;SDS011;37465;52.738;4.752;2022-09-29T19:44:39;2.00;;;1.50;;
51374;SDS011;37465;52.738;4.752;2022-09-29T19:47:06;1.60;;;1.50;;
51374;SDS011;37465;52.738;4.752;2022-09-29T19:49:34;2.42;;;2.00;;
51374;SDS011;37465;52.738;4.752;2022-09-29T19:52:03;3.17;;;1.88;;
51374;SDS011;37465;52.738;4.752;2022-09-29T19:54:30;1.52;;;1.42;;
51374;SDS011;37465;52.738;4.752;2022-09-29T19:56:59;3.15;;;1.20;;
51374;SDS011;37465;52.738;4.752;2022-09-29T19:59:27;1.23;;;0.90;;
51374;SDS011;37465;52.738;4.752;2022-09-29T20:01:56;0.90;;;0.90;;
51374;SDS011;37465;52.738;4.752;2022-09-29T20:04:26;1.17;;;1.08;;
51374;SDS011;37465;52.738;4.752;2022-09-29T20:06:55;1.25;;;1.13;;
51374;SDS011;37465;52.738;4.752;2022-09-29T20:09:24;2.72;;;2.53;;
51374;SDS011;37465;52.738;4.752;2022-09-29T20:11:52;1.70;;;1.60;;
51374;SDS011;37465;52.738;4.752;2022-09-29T20:14:21;1.73;;;1.63;;
51374;SDS011;37465;52.738;4.752;2022-09-29T20:16:49;2.20;;;2.00;;
51374;SDS011;37465;52.738;4.752;2022-09-29T20:19:17;3.60;;;2.40;;
51374;SDS011;37465;52.738;4.752;2022-09-29T20:21:47;2.30;;;2.10;;
51374;SDS011;37465;52.738;4.752;2022-09-29T20:24:16;3.33;;;2.33;;
51374;SDS011;37465;52.738;4.752;2022-09-29T20:26:45;3.05;;;2.83;;
51374;SDS011;37465;52.738;4.752;2022-09-29T20:29:14;2.35;;;2.15;;
51374;SDS011;37465;52.738;4.752;2022-09-29T20:31:43;2.17;;;2.05;;
51374;SDS011;37465;52.738;4.752;2022-09-29T20:34:11;2.65;;;2.45;;
51374;SDS011;37465;52.738;4.752;2022-09-29T20:36:39;2.58;;;2.38;;
51374;SDS011;37465;52.738;4.752;2022-09-29T20:39:06;2.53;;;2.33;;
51374;SDS011;37465;52.738;4.752;2022-09-29T20:41:34;2.25;;;2.00;;
51374;SDS011;37465;52.738;4.752;2022-09-29T20:44:03;1.73;;;1.60;;
51374;SDS011;37465;52.738;4.752;2022-09-29T20:46:30;1.67;;;1.53;;
51374;SDS011;37465;52.738;4.752;2022-09-29T20:48:58;1.45;;;1.35;;
51374;SDS011;37465;52.738;4.752;2022-09-29T20:53:55;1.38;;;1.00;;
51374;SDS011;37465;52.738;4.752;2022-09-29T20:56:23;1.77;;;1.40;;
51374;SDS011;37465;52.738;4.752;2022-09-29T20:58:57;2.53;;;1.42;;
51374;SDS011;37465;52.738;4.752;2022-09-29T21:01:26;1.58;;;1.33;;
51374;SDS011;37465;52.738;4.752;2022-09-29T21:06:22;0.95;;;0.95;;
51374;SDS011;37465;52.738;4.752;2022-09-29T21:08:50;2.00;;;1.80;;
51374;SDS011;37465;52.738;4.752;2022-09-29T21:11:17;2.45;;;2.25;;
51374;SDS011;37465;52.738;4.752;2022-09-29T21:13:46;2.78;;;2.50;;
51374;SDS011;37465;52.738;4.752;2022-09-29T21:16:14;2.70;;;2.33;;
51374;SDS011;37465;52.738;4.752;2022-09-29T21:18:43;4.28;;;3.88;;
51374;SDS011;37465;52.738;4.752;2022-09-29T21:21:10;4.65;;;4.20;;
51374;SDS011;37465;52.738;4.752;2022-09-29T21:23:38;4.75;;;4.22;;
51374;SDS011;37465;52.738;4.752;2022-09-29T21:26:07;6.25;;;5.60;;
51374;SDS011;37465;52.738;4.752;2022-09-29T21:28:37;7.35;;;6.65;;
51374;SDS011;37465;52.738;4.752;2022-09-29T21:31:05;7.47;;;6.78;;
51374;SDS011;37465;52.738;4.752;2022-09-29T21:33:33;8.20;;;7.40;;
51374;SDS011;37465;52.738;4.752;2022-09-29T21:36:03;6.82;;;6.22;;
51374;SDS011;37465;52.738;4.752;2022-09-29T21:41:01;4.43;;;4.03;;
51374;SDS011;37465;52.738;4.752;2022-09-29T21:43:29;4.25;;;3.88;;
51374;SDS011;37465;52.738;4.752;2022-09-29T21:46:00;3.53;;;3.22;;
51374;SDS011;37465;52.738;4.752;2022-09-29T21:48:28;3.60;;;3.00;;
51374;SDS011;37465;52.738;4.752;2022-09-29T21:51:00;2.75;;;2.55;;
51374;SDS011;37465;52.738;4.752;2022-09-29T21:53:29;3.00;;;2.70;;
51374;SDS011;37465;52.738;4.752;2022-09-29T21:56:00;2.85;;;2.35;;
51374;SDS011;37465;52.738;4.752;2022-09-29T21:58:28;2.92;;;2.63;;
51374;SDS011;37465;52.738;4.752;2022-09-29T22:00:56;2.70;;;2.40;;
51374;SDS011;37465;52.738;4.752;2022-09-29T22:03:24;3.03;;;2.70;;
51374;SDS011;37465;52.738;4.752;2022-09-29T22:05:52;2.95;;;2.67;;
51374;SDS011;37465;52.738;4.752;2022-09-29T22:08:19;3.28;;;2.83;;
51374;SDS011;37465;52.738;4.752;2022-09-29T22:10:50;2.83;;;2.60;;
51374;SDS011;37465;52.738;4.752;2022-09-29T22:13:18;2.70;;;2.45;;
51374;SDS011;37465;52.738;4.752;2022-09-29T22:15:46;2.33;;;2.13;;
51374;SDS011;37465;52.738;4.752;2022-09-29T22:18:13;2.67;;;1.88;;
51374;SDS011;37465;52.738;4.752;2022-09-29T22:20:41;2.22;;;2.03;;
51374;SDS011;37465;52.738;4.752;2022-09-29T22:23:08;2.20;;;2.00;;
51374;SDS011;37465;52.738;4.752;2022-09-29T22:25:40;2.45;;;2.20;;
51374;SDS011;37465;52.738;4.752;2022-09-29T22:28:09;2.30;;;2.00;;
51374;SDS011;37465;52.738;4.752;2022-09-29T22:30:37;2.17;;;1.90;;
51374;SDS011;37465;52.738;4.752;2022-09-29T22:33:05;2.20;;;2.00;;
51374;SDS011;37465;52.738;4.752;2022-09-29T22:35:32;2.35;;;1.80;;
51374;SDS011;37465;52.738;4.752;2022-09-29T22:38:00;2.67;;;2.47;;
51374;SDS011;37465;52.738;4.752;2022-09-29T22:40:27;2.40;;;2.20;;
51374;SDS011;37465;52.738;4.752;2022-09-29T22:42:55;3.22;;;2.92;;
51374;SDS011;37465;52.738;4.752;2022-09-29T22:45:23;3.20;;;2.85;;
51374;SDS011;37465;52.738;4.752;2022-09-29T22:47:51;3.07;;;2.37;;
51374;SDS011;37465;52.738;4.752;2022-09-29T22:50:19;3.13;;;2.70;;
51374;SDS011;37465;52.738;4.752;2022-09-29T22:52:49;3.00;;;2.65;;
51374;SDS011;37465;52.738;4.752;2022-09-29T22:55:18;3.75;;;2.58;;
51374;SDS011;37465;52.738;4.752;2022-09-29T22:57:45;2.58;;;2.38;;
51374;SDS011;37465;52.738;4.752;2022-09-29T23:00:13;4.13;;;3.78;;
51374;SDS011;37465;52.738;4.752;2022-09-29T23:02:42;4.10;;;3.80;;
51374;SDS011;37465;52.738;4.752;2022-09-29T23:05:09;4.28;;;3.97;;
51374;SDS011;37465;52.738;4.752;2022-09-29T23:07:37;4.10;;;3.70;;
51374;SDS011;37465;52.738;4.752;2022-09-29T23:10:05;3.85;;;3.55;;
51374;SDS011;37465;52.738;4.752;2022-09-29T23:12:35;3.90;;;3.50;;
51374;SDS011;37465;52.738;4.752;2022-09-29T23:15:08;4.00;;;3.70;;
51374;SDS011;37465;52.738;4.752;2022-09-29T23:17:35;3.90;;;3.58;;
51374;SDS011;37465;52.738;4.752;2022-09-29T23:20:04;4.05;;;3.67;;
51374;SDS011;37465;52.738;4.752;2022-09-29T23:22:32;4.10;;;3.80;;
51374;SDS011;37465;52.738;4.752;2022-09-29T23:25:00;4.20;;;3.90;;
51374;SDS011;37465;52.738;4.752;2022-09-29T23:27:28;4.40;;;4.00;;
51374;SDS011;37465;52.738;4.752;2022-09-29T23:29:55;4.28;;;3.72;;
51374;SDS011;37465;52.738;4.752;2022-09-29T23:32:23;4.10;;;3.80;;
51374;SDS011;37465;52.738;4.752;2022-09-29T23:34:50;4.13;;;3.72;;
51374;SDS011;37465;52.738;4.752;2022-09-29T23:37:19;4.45;;;4.05;;
51374;SDS011;37465;52.738;4.752;2022-09-29T23:39:46;4.40;;;4.10;;
51374;SDS011;37465;52.738;4.752;2022-09-29T23:42:13;5.20;;;4.70;;
51374;SDS011;37465;52.738;4.752;2022-09-29T23:44:40;5.83;;;5.33;;
51374;SDS011;37465;52.738;4.752;2022-09-29T23:47:08;5.63;;;5.13;;
51374;SDS011;37465;52.738;4.752;2022-09-29T23:49:35;6.18;;;5.57;;
51374;SDS011;37465;52.738;4.752;2022-09-29T23:52:02;5.90;;;5.40;;
51374;SDS011;37465;52.738;4.752;2022-09-29T23:54:31;5.60;;;5.15;;
51374;SDS011;37465;52.738;4.752;2022-09-29T23:56:59;5.60;;;5.10;;
51374;SDS011;37465;52.738;4.752;2022-09-29T23:59:26;5.80;;;5.20;;
